Terminal Aerodrome Forecast
Issued by NWS La Crosse, WI

Home | Current Version | Previous Version | Text Only | Print | Product List | Glossary On
Versions: 1 2 3 4 5 6 7 8 9 10 11 12 13 14 15 16 17 18 19 20 21 22 23 24 25 26 27 28 29 30 31 32 33 34 35 36 37 38 39 40 41 42 43 44 45 46
000
FTUS43 KARX 271236 AAA
TAFRST
TAF AMD
KRST 271236Z 2713/2812 33015KT 6SM -SN OVC008
      TEMPO 2713/2715 3SM -SN SCT008 OVC012
     FM271500 31015G22KT P6SM SCT006 OVC015
     FM271900 30015G22KT P6SM BKN020
     FM272200 29012KT P6SM SCT020
     FM280200 26010KT P6SM SCT200=

USA.gov is the U.S. government's official web portal to all federal, state and local government web resources and services.